Time;durP1;ratioP1;P1;durP2;ratioP2;P2;SDS_P1;SDS_P2;PMS_P1;PMS_P2;Temp;Humidity;BMP_temperature;BMP_pressure;BME280_temperature;BME280_humidity;BME280_pressure;Samples;Min_cycle;Max_cycle;Signal;HPM_P1;HPM_P2
2022/08/04 00:00:10;;;;;;;12.55;6.35;;;19.00;99.90;;;;;;5072153;28;20025;-50
2022/08/04 00:03:03;;;;;;;10.83;6.63;;;19.00;99.90;;;;;;5072220;28;20016;-50
2022/08/04 00:05:48;;;;;;;10.15;5.20;;;18.90;99.90;;;;;;5072194;28;20036;-49
2022/08/04 00:08:36;;;;;;;10.75;6.10;;;18.90;99.90;;;;;;5059733;28;20123;-55
2022/08/04 00:11:02;;;;;;;14.07;7.13;;;18.80;99.90;;;;;;5087416;28;20415;-47
2022/08/04 00:13:31;;;;;;;14.50;7.43;;;18.80;99.90;;;;;;5072177;28;20020;-53
2022/08/04 00:15:58;;;;;;;12.82;7.55;;;18.80;99.90;;;;;;5071967;28;20035;-49
2022/08/04 00:18:44;;;;;;;12.75;7.55;;;18.80;99.90;;;;;;5071983;28;20537;-46
2022/08/04 00:21:13;;;;;;;14.05;6.65;;;18.90;99.90;;;;;;5071703;28;20020;-52
2022/08/04 00:23:42;;;;;;;18.58;8.95;;;19.00;99.90;;;;;;5067700;28;20017;-50
2022/08/04 00:26:09;;;;;;;15.43;7.75;;;19.00;99.90;;;;;;5061830;28;20480;-46
2022/08/04 00:28:37;;;;;;;14.15;7.45;;;18.90;99.90;;;;;;5071656;28;20491;-50
2022/08/04 00:31:04;;;;;;;13.93;7.28;;;19.00;99.90;;;;;;5071652;28;20082;-53
2022/08/04 00:33:31;;;;;;;12.70;7.88;;;19.00;99.90;;;;;;5071212;28;20032;-55
2022/08/04 00:35:58;;;;;;;12.05;7.20;;;19.00;99.90;;;;;;5071892;28;20598;-51
2022/08/04 00:38:25;;;;;;;13.30;7.07;;;19.00;99.90;;;;;;5071689;28;20111;-53
2022/08/04 00:41:05;;;;;;;13.70;8.05;;;19.10;99.90;;;;;;5071631;28;20020;-52
2022/08/04 00:43:38;;;;;;;11.38;6.82;;;19.10;99.90;;;;;;5071615;28;20029;-55
2022/08/04 00:46:12;;;;;;;14.57;7.38;;;19.10;99.90;;;;;;5058268;28;20045;-52
2022/08/04 00:48:44;;;;;;;14.77;7.45;;;19.10;99.90;;;;;;5071482;28;20111;-51
2022/08/04 00:51:15;;;;;;;14.32;7.57;;;19.10;99.90;;;;;;5058397;28;20036;-45
2022/08/04 00:54:15;;;;;;;15.68;8.48;;;19.10;99.90;;;;;;5071365;28;20024;-45
2022/08/04 00:57:01;;;;;;;11.80;7.80;;;19.20;99.90;;;;;;5061679;28;20376;-45
2022/08/04 00:59:44;;;;;;;14.18;6.90;;;19.20;99.90;;;;;;5071327;28;20020;-46
2022/08/04 01:02:39;;;;;;;14.38;7.50;;;19.30;99.90;;;;;;5064763;28;20031;-46
2022/08/04 01:05:06;;;;;;;14.48;7.38;;;19.40;99.90;;;;;;5071255;28;20086;-46
2022/08/04 01:07:55;;;;;;;12.52;6.90;;;19.40;99.90;;;;;;5071144;28;20056;-51
2022/08/04 01:10:39;;;;;;;15.05;8.27;;;19.40;99.90;;;;;;5071230;28;20110;-56
2022/08/04 01:13:07;;;;;;;13.38;7.03;;;19.40;99.90;;;;;;5070925;28;20032;-52
2022/08/04 01:15:42;;;;;;;16.80;8.37;;;19.40;99.90;;;;;;5071455;28;20133;-48
2022/08/04 01:18:11;;;;;;;13.80;7.72;;;19.30;99.90;;;;;;5070922;28;20478;-52
2022/08/04 01:20:47;;;;;;;;;;;19.30;99.90;;;;;;5071595;28;20056;-49
2022/08/04 01:23:31;;;;;;;13.30;7.55;;;19.30;99.90;;;;;;5070154;28;19915;-45
2022/08/04 01:26:15;;;;;;;15.45;7.20;;;19.30;99.90;;;;;;5060405;28;20078;-47
2022/08/04 01:28:55;;;;;;;11.80;7.07;;;19.40;99.90;;;;;;5053750;28;20061;-49
2022/08/04 01:31:31;;;;;;;15.43;7.63;;;19.40;99.90;;;;;;5061549;28;20025;-49
2022/08/04 01:34:02;;;;;;;11.55;7.38;;;19.40;99.90;;;;;;5062621;28;20032;-52
2022/08/04 01:36:29;;;;;;;15.57;7.43;;;19.50;99.90;;;;;;5059400;28;20477;-46
2022/08/04 01:38:55;;;;;;;13.10;7.53;;;19.40;99.90;;;;;;5075103;28;20032;-47
2022/08/04 01:41:22;;;;;;;14.77;7.93;;;19.40;99.90;;;;;;5077581;28;20570;-59
2022/08/04 01:43:52;;;;;;;15.75;9.10;;;19.40;99.90;;;;;;5075797;28;20473;-46
2022/08/04 01:46:20;;;;;;;17.83;8.00;;;19.40;99.90;;;;;;5065585;28;20032;-50
2022/08/04 01:48:52;;;;;;;15.50;8.38;;;19.30;99.90;;;;;;5077350;28;20100;-47
2022/08/04 01:51:21;;;;;;;17.92;8.10;;;19.20;99.90;;;;;;5077501;28;20515;-50
2022/08/04 01:53:46;;;;;;;18.70;8.85;;;19.10;99.90;;;;;;5077575;28;20021;-51
2022/08/04 01:56:12;;;;;;;15.70;9.05;;;19.10;99.90;;;;;;5077305;28;20502;-46
2022/08/04 01:58:39;;;;;;;20.60;9.02;;;19.10;99.90;;;;;;5077458;28;20031;-46
2022/08/04 02:01:10;;;;;;;20.48;9.30;;;19.10;99.90;;;;;;5073448;28;20045;-45
2022/08/04 02:03:40;;;;;;;17.20;9.00;;;19.10;99.90;;;;;;5067395;28;20081;-47
2022/08/04 02:06:39;;;;;;;19.67;9.52;;;19.00;99.90;;;;;;5077028;28;20119;-50
2022/08/04 02:09:10;;;;;;;20.63;9.25;;;19.10;99.90;;;;;;5077170;28;20024;-47
2022/08/04 02:11:40;;;;;;;22.10;10.15;;;19.10;99.90;;;;;;5076920;28;20024;-46
2022/08/04 02:14:08;;;;;;;27.52;10.65;;;19.20;99.90;;;;;;5076989;28;20108;-55
2022/08/04 02:16:48;;;;;;;27.30;10.55;;;19.20;99.90;;;;;;5076869;28;20047;-46
2022/08/04 02:19:22;;;;;;;23.88;9.40;;;19.30;99.90;;;;;;5077022;28;20101;-52
2022/08/04 02:21:55;;;;;;;26.45;9.30;;;19.30;99.90;;;;;;5076996;28;20025;-49
2022/08/04 02:24:26;;;;;;;29.92;10.82;;;19.30;99.90;;;;;;5077134;28;20078;-45
2022/08/04 02:26:55;;;;;;;23.63;10.05;;;19.30;99.90;;;;;;5076691;28;20024;-53
2022/08/04 02:29:39;;;;;;;19.75;9.50;;;19.30;99.90;;;;;;5075398;28;20399;-47
2022/08/04 02:32:10;;;;;;;26.23;9.40;;;19.30;99.90;;;;;;5072509;28;20396;-47
2022/08/04 02:34:52;;;;;;;31.90;10.18;;;19.30;99.90;;;;;;5076886;28;20457;-46
2022/08/04 02:37:20;;;;;;;24.45;9.40;;;19.30;99.90;;;;;;5063164;28;20067;-46
2022/08/04 02:39:50;;;;;;;26.92;9.88;;;19.30;99.90;;;;;;5077061;28;20130;-53
2022/08/04 02:42:16;;;;;;;26.73;10.30;;;19.30;99.90;;;;;;5076931;28;20016;-47
2022/08/04 02:44:42;;;;;;;24.20;10.15;;;19.20;99.90;;;;;;5076606;28;20077;-46
2022/08/04 02:47:10;;;;;;;27.50;9.40;;;19.20;99.90;;;;;;5076881;28;20036;-45
2022/08/04 02:49:36;;;;;;;29.50;10.30;;;19.20;99.90;;;;;;5074115;28;20021;-46
2022/08/04 02:52:03;;;;;;;27.63;9.45;;;19.20;99.90;;;;;;5073388;28;20031;-45
2022/08/04 02:54:35;;;;;;;27.35;10.20;;;19.20;99.90;;;;;;5073830;28;20025;-47
2022/08/04 02:57:07;;;;;;;28.67;10.30;;;19.20;99.90;;;;;;5070532;28;20025;-47
2022/08/04 02:59:53;;;;;;;29.58;9.65;;;19.10;99.90;;;;;;5073489;28;20039;-51
2022/08/04 03:02:37;;;;;;;27.17;9.18;;;19.10;99.90;;;;;;5073299;28;20024;-50
2022/08/04 03:05:10;;;;;;;23.00;9.32;;;19.10;99.90;;;;;;5073192;28;20028;-47
2022/08/04 03:07:54;;;;;;;24.40;9.07;;;19.10;99.90;;;;;;5073247;28;20116;-51
2022/08/04 03:10:27;;;;;;;27.05;10.10;;;19.10;99.90;;;;;;5073391;28;20040;-54
2022/08/04 03:13:24;;;;;;;25.20;9.88;;;19.00;99.90;;;;;;5073131;28;20387;-52
2022/08/04 03:16:24;;;;;;;27.00;9.27;;;19.00;99.90;;;;;;5072472;28;20031;-48
2022/08/04 03:19:07;;;;;;;26.20;9.65;;;18.90;99.90;;;;;;5072153;28;20380;-51
2022/08/04 03:21:54;;;;;;;26.13;8.90;;;18.90;99.90;;;;;;5072951;28;20020;-47
2022/08/04 03:24:49;;;;;;;20.73;9.90;;;18.90;99.90;;;;;;5068714;28;20372;-49
2022/08/04 03:27:37;;;;;;;25.35;9.55;;;18.90;99.90;;;;;;5064528;28;20515;-46
2022/08/04 03:30:18;;;;;;;33.67;10.45;;;18.90;99.90;;;;;;5059551;28;20430;-45
2022/08/04 03:32:58;;;;;;;23.85;8.90;;;18.90;99.90;;;;;;5072458;28;20086;-45
2022/08/04 03:35:41;;;;;;;28.90;10.68;;;18.90;99.90;;;;;;5067708;28;20041;-49
2022/08/04 03:38:16;;;;;;;20.77;8.90;;;18.90;99.90;;;;;;5065773;28;20503;-47
2022/08/04 03:40:57;;;;;;;23.30;9.00;;;18.90;99.90;;;;;;5070479;28;20028;-49
2022/08/04 03:43:32;;;;;;;29.00;10.10;;;18.90;99.90;;;;;;5072594;28;20031;-46
2022/08/04 03:46:40;;;;;;;26.00;9.82;;;18.90;99.90;;;;;;5072845;28;20036;-55
2022/08/04 03:49:36;;;;;;;33.42;10.93;;;18.90;99.90;;;;;;5072650;28;20029;-47
2022/08/04 03:55:22;;;;;;;30.85;10.63;;;18.90;99.90;;;;;;5072374;28;20039;-51
2022/08/04 03:58:18;;;;;;;25.17;9.70;;;19.00;99.90;;;;;;5072366;28;20030;-47
2022/08/04 04:00:56;;;;;;;26.60;10.07;;;19.10;99.90;;;;;;5071397;28;20170;-47
2022/08/04 04:03:58;;;;;;;20.38;8.40;;;19.10;99.90;;;;;;5072425;28;20043;-46
2022/08/04 04:07:04;;;;;;;17.33;8.27;;;19.10;99.90;;;;;;5072179;28;20066;-48
2022/08/04 04:09:44;;;;;;;11.95;6.80;;;19.10;99.90;;;;;;5068387;28;20055;-53
2022/08/04 04:12:42;;;;;;;12.43;5.13;;;19.10;99.90;;;;;;5071359;28;20024;-48
2022/08/04 04:15:33;;;;;;;10.57;3.43;;;19.10;99.90;;;;;;5070093;28;20029;-52
2022/08/04 04:18:20;;;;;;;11.60;4.15;;;19.00;99.90;;;;;;5071798;28;20032;-46
2022/08/04 04:20:56;;;;;;;6.85;3.00;;;18.90;99.90;;;;;;5071009;28;20020;-48
2022/08/04 04:23:21;;;;;;;7.97;3.35;;;18.90;99.90;;;;;;5069863;28;20491;-46
2022/08/04 04:26:05;;;;;;;10.57;2.67;;;18.80;99.90;;;;;;5071294;28;20076;-49
2022/08/04 04:28:34;;;;;;;5.80;2.50;;;18.70;99.90;;;;;;5070619;28;20143;-48
2022/08/04 04:31:18;;;;;;;4.97;2.38;;;18.70;99.90;;;;;;5069522;28;20028;-54
2022/08/04 04:34:05;;;;;;;7.90;2.25;;;18.70;99.90;;;;;;5071501;28;20040;-50
2022/08/04 04:37:01;;;;;;;5.97;2.40;;;18.60;99.90;;;;;;5070243;28;20036;-51
2022/08/04 04:39:48;;;;;;;4.10;2.00;;;18.50;99.90;;;;;;5061750;28;20060;-48
2022/08/04 04:42:44;;;;;;;4.05;2.05;;;18.50;99.90;;;;;;5071430;28;20042;-50
2022/08/04 04:45:24;;;;;;;7.13;2.30;;;18.40;99.90;;;;;;5071100;28;20042;-52
2022/08/04 04:48:06;;;;;;;6.72;2.17;;;18.40;99.90;;;;;;5070993;28;20048;-50
2022/08/04 04:50:57;;;;;;;6.22;2.10;;;18.30;99.90;;;;;;5069513;28;20475;-50
2022/08/04 04:53:26;;;;;;;4.03;1.73;;;18.30;99.90;;;;;;5070705;28;20021;-53
2022/08/04 04:56:00;;;;;;;5.03;1.92;;;18.20;99.90;;;;;;5070072;28;20025;-50
2022/08/04 04:58:29;;;;;;;3.28;1.60;;;18.20;99.90;;;;;;5071590;28;20366;-51
2022/08/04 05:01:37;;;;;;;5.30;1.60;;;18.20;99.90;;;;;;5069837;28;20368;-48
2022/08/04 05:04:24;;;;;;;5.50;1.52;;;18.20;99.90;;;;;;5060892;28;20102;-48
2022/08/04 05:07:35;;;;;;;2.00;1.40;;;18.10;99.90;;;;;;5069609;28;20036;-51
2022/08/04 05:10:18;;;;;;;9.82;2.00;;;18.20;99.90;;;;;;5062201;28;20140;-48
2022/08/04 05:13:14;;;;;;;4.63;1.60;;;18.30;99.90;;;;;;5068805;28;20021;-49
2022/08/04 05:15:43;;;;;;;4.30;1.45;;;18.30;99.90;;;;;;5071204;28;20025;-50
2022/08/04 05:18:15;;;;;;;7.45;2.08;;;18.40;99.90;;;;;;5070942;28;20036;-51
2022/08/04 05:20:45;;;;;;;6.68;2.40;;;18.40;99.90;;;;;;5071007;28;20067;-47
2022/08/04 05:23:17;;;;;;;4.82;1.73;;;18.50;99.90;;;;;;5070613;28;20033;-49
2022/08/04 05:25:45;;;;;;;4.47;1.48;;;18.60;99.90;;;;;;5069026;28;20036;-52
2022/08/04 05:28:16;;;;;;;5.00;1.63;;;18.60;99.90;;;;;;5069084;28;20033;-49
2022/08/04 05:30:49;;;;;;;4.82;1.92;;;18.70;99.60;;;;;;5069135;28;20032;-47
2022/08/04 05:33:19;;;;;;;6.57;1.58;;;18.80;99.90;;;;;;5069059;28;20017;-47
2022/08/04 05:35:48;;;;;;;4.55;1.52;;;18.80;98.70;;;;;;5061165;28;20036;-50
2022/08/04 05:38:19;;;;;;;4.55;1.70;;;18.90;99.90;;;;;;5063298;28;20028;-49
2022/08/04 05:40:45;;;;;;;6.72;1.80;;;18.90;99.90;;;;;;5070924;28;20529;-48
2022/08/04 05:43:13;;;;;;;9.40;1.90;;;19.00;99.90;;;;;;5070933;28;20107;-47
2022/08/04 05:45:40;;;;;;;6.88;2.15;;;19.00;99.60;;;;;;5070615;28;20111;-48
2022/08/04 05:48:07;;;;;;;16.40;2.60;;;19.00;99.90;;;;;;5070748;28;20028;-49
2022/08/04 05:50:34;;;;;;;4.70;1.80;;;19.10;99.90;;;;;;5070953;28;20037;-48
2022/08/04 05:53:01;;;;;;;3.63;1.80;;;19.20;99.90;;;;;;5070763;28;20096;-49
2022/08/04 05:55:29;;;;;;;3.65;1.63;;;19.20;99.90;;;;;;5070808;28;20045;-47
2022/08/04 05:57:58;;;;;;;5.32;1.70;;;19.20;99.90;;;;;;5070787;28;20499;-47
2022/08/04 06:00:25;;;;;;;4.63;2.00;;;19.20;99.70;;;;;;5070567;28;20487;-49
2022/08/04 06:02:53;;;;;;;5.00;2.15;;;19.20;99.90;;;;;;5070534;28;20029;-48
2022/08/04 06:05:19;;;;;;;7.90;2.10;;;19.20;99.90;;;;;;5070584;28;20036;-50
2022/08/04 06:07:46;;;;;;;7.22;2.13;;;19.30;99.70;;;;;;5069333;28;20391;-48
2022/08/04 06:10:12;;;;;;;8.00;1.90;;;19.40;99.00;;;;;;5070682;28;20048;-51
2022/08/04 06:12:45;;;;;;;5.10;1.85;;;19.50;99.10;;;;;;5070534;28;20028;-49
2022/08/04 06:15:15;;;;;;;8.00;2.15;;;19.50;99.50;;;;;;5070428;28;20044;-49
2022/08/04 06:18:00;;;;;;;5.82;1.83;;;19.50;98.70;;;;;;5070263;28;20660;-49
2022/08/04 06:20:29;;;;;;;6.60;2.00;;;19.50;99.00;;;;;;5070557;28;20028;-46
2022/08/04 06:23:03;;;;;;;4.00;1.90;;;19.60;98.90;;;;;;5070538;28;20099;-48
2022/08/04 06:25:33;;;;;;;6.03;1.98;;;19.70;99.90;;;;;;5073139;28;20032;-48
2022/08/04 06:28:01;;;;;;;6.47;2.15;;;19.80;98.30;;;;;;5074338;28;20028;-48
2022/08/04 06:30:28;;;;;;;6.05;2.03;;;20.00;98.70;;;;;;5074103;28;20469;-47
2022/08/04 06:32:59;;;;;;;4.53;1.70;;;20.00;98.80;;;;;;5072113;28;20020;-50
2022/08/04 06:35:26;;;;;;;6.28;1.90;;;20.20;98.00;;;;;;5068543;28;20129;-47
2022/08/04 06:37:53;;;;;;;5.70;1.88;;;21.20;96.90;;;;;;5065237;28;20025;-47
2022/08/04 06:40:23;;;;;;;4.07;1.77;;;22.60;95.00;;;;;;5074068;28;20113;-49
2022/08/04 06:42:49;;;;;;;5.75;1.80;;;23.70;92.80;;;;;;5064355;28;20754;-52
2022/08/04 06:45:17;;;;;;;6.00;1.80;;;24.80;91.60;;;;;;5073777;28;20024;-45
2022/08/04 06:47:43;;;;;;;6.82;1.48;;;25.80;89.80;;;;;;5073979;28;20085;-52
2022/08/04 06:50:10;;;;;;;6.47;1.60;;;26.60;86.30;;;;;;5071981;28;20024;-49
2022/08/04 06:52:37;;;;;;;5.10;1.38;;;27.20;80.80;;;;;;5073690;28;20047;-50
2022/08/04 06:55:04;;;;;;;5.75;1.65;;;27.80;81.10;;;;;;5073818;28;20035;-53
2022/08/04 06:57:31;;;;;;;6.63;1.50;;;28.20;77.10;;;;;;5073575;28;20078;-49
2022/08/04 06:59:59;;;;;;;5.32;1.73;;;28.50;77.70;;;;;;5073180;28;20027;-51
2022/08/04 07:02:27;;;;;;;4.32;1.45;;;28.80;74.90;;;;;;5073296;28;20103;-50
2022/08/04 07:04:53;;;;;;;5.53;1.40;;;28.90;71.30;;;;;;5073206;28;20029;-48
2022/08/04 07:07:19;;;;;;;3.70;1.05;;;29.40;70.20;;;;;;5073143;28;20035;-55
2022/08/04 07:09:45;;;;;;;5.75;1.27;;;29.40;66.80;;;;;;5073313;28;20375;-48
2022/08/04 07:12:12;;;;;;;3.58;1.17;;;29.50;65.70;;;;;;5072922;28;20436;-48
2022/08/04 07:14:39;;;;;;;4.25;1.10;;;29.60;64.90;;;;;;5072704;28;20067;-52
2022/08/04 07:17:07;;;;;;;4.85;1.05;;;29.60;63.10;;;;;;5069627;28;20036;-49
2022/08/04 07:19:35;;;;;;;5.80;1.25;;;29.50;62.50;;;;;;5070156;28;20017;-47
2022/08/04 07:22:02;;;;;;;5.07;1.35;;;29.60;63.20;;;;;;5072857;28;20036;-53
2022/08/04 07:24:32;;;;;;;4.90;1.67;;;29.50;63.70;;;;;;5072609;28;20032;-53
2022/08/04 07:26:59;;;;;;;3.08;1.10;;;29.70;62.50;;;;;;5072499;28;20024;-46
2022/08/04 07:29:25;;;;;;;3.25;1.15;;;30.20;62.10;;;;;;5072519;28;20031;-47
2022/08/04 07:31:52;;;;;;;5.00;1.35;;;30.70;60.80;;;;;;5072450;28;20020;-46
2022/08/04 07:34:18;;;;;;;5.47;1.23;;;30.90;58.40;;;;;;5071825;28;20674;-49
2022/08/04 07:36:44;;;;;;;6.78;1.75;;;31.10;56.50;;;;;;5071306;28;20025;-53
2022/08/04 07:39:10;;;;;;;3.83;1.00;;;30.90;55.50;;;;;;5072802;28;20533;-54
2022/08/04 07:41:36;;;;;;;5.35;1.38;;;31.10;55.50;;;;;;5072155;28;20020;-51
2022/08/04 07:44:03;;;;;;;3.58;1.27;;;31.30;55.70;;;;;;5072578;28;20479;-47
2022/08/04 07:46:29;;;;;;;4.00;1.00;;;31.50;54.40;;;;;;5072518;28;20404;-49
2022/08/04 07:48:55;;;;;;;3.30;1.20;;;31.60;53.40;;;;;;5072489;28;20025;-46
2022/08/04 07:51:22;;;;;;;4.25;1.33;;;32.20;52.80;;;;;;5072546;28;20025;-53
2022/08/04 07:53:48;;;;;;;4.05;1.10;;;32.60;51.80;;;;;;5072427;28;20029;-46
2022/08/04 07:56:15;;;;;;;3.63;0.98;;;33.00;50.90;;;;;;5072338;28;20032;-46
2022/08/04 07:58:41;;;;;;;3.97;1.03;;;33.30;49.50;;;;;;5072318;28;20020;-54
2022/08/04 08:01:08;;;;;;;4.95;1.10;;;33.20;48.50;;;;;;5072493;28;20276;-57
2022/08/04 08:03:34;;;;;;;5.00;1.08;;;33.20;48.80;;;;;;5072328;28;20119;-49
2022/08/04 08:06:00;;;;;;;5.90;1.23;;;33.40;48.10;;;;;;5069779;28;20547;-51
2022/08/04 08:08:26;;;;;;;4.82;1.30;;;33.70;48.20;;;;;;5072315;28;20112;-55
2022/08/04 08:10:52;;;;;;;5.20;1.15;;;33.70;46.70;;;;;;5071887;28;20663;-50
2022/08/04 08:13:18;;;;;;;3.22;0.95;;;33.60;46.00;;;;;;5071742;28;20103;-47
2022/08/04 08:15:45;;;;;;;4.85;1.00;;;33.20;45.00;;;;;;5071645;28;20029;-47
2022/08/04 08:18:12;;;;;;;3.33;1.02;;;33.30;46.80;;;;;;5071812;28;20036;-47
2022/08/04 08:20:38;;;;;;;5.85;1.20;;;33.20;48.20;;;;;;5071968;28;20023;-52
2022/08/04 08:23:03;;;;;;;4.40;1.30;;;33.60;45.00;;;;;;5072003;28;20031;-48
2022/08/04 08:25:31;;;;;;;4.90;1.30;;;33.40;43.30;;;;;;5071909;28;20025;-50
2022/08/04 08:27:57;;;;;;;4.43;1.20;;;33.00;45.90;;;;;;5071835;28;20021;-55
2022/08/04 08:30:24;;;;;;;5.72;1.20;;;33.50;47.80;;;;;;5069923;28;20075;-48
2022/08/04 08:32:50;;;;;;;4.00;1.27;;;33.90;45.60;;;;;;5069515;28;20483;-51
2022/08/04 08:35:17;;;;;;;2.83;1.05;;;34.10;46.30;;;;;;5067482;28;20040;-49
2022/08/04 08:37:57;;;;;;;4.82;1.10;;;34.50;45.00;;;;;;5052441;28;20016;-49
2022/08/04 08:40:40;;;;;;;3.40;1.13;;;34.60;43.40;;;;;;5054808;28;20589;-54
2022/08/04 08:43:33;;;;;;;4.60;1.13;;;34.40;42.10;;;;;;5071334;28;20035;-46
2022/08/04 08:46:34;;;;;;;4.50;1.23;;;34.10;42.50;;;;;;5071152;28;20479;-46
2022/08/04 08:49:37;;;;;;;3.22;1.25;;;34.30;42.10;;;;;;5071375;28;20043;-48
2022/08/04 08:52:44;;;;;;;5.00;1.30;;;34.40;42.70;;;;;;5071089;28;20415;-49
2022/08/04 08:55:20;;;;;;;4.28;1.27;;;34.60;41.50;;;;;;5055350;28;20045;-43
2022/08/04 08:58:18;;;;;;;4.78;1.10;;;34.60;42.40;;;;;;5071153;28;20112;-51
2022/08/04 09:00:46;;;;;;;3.35;0.90;;;34.10;41.90;;;;;;5071376;28;20104;-48
2022/08/04 09:03:21;;;;;;;;;;;34.10;42.70;;;;;;5071505;28;20048;-49
2022/08/04 09:06:19;;;;;;;4.22;1.05;;;33.80;42.70;;;;;;5070982;28;20379;-48
2022/08/04 09:09:10;;;;;;;;;;;33.90;43.00;;;;;;5071895;28;20017;-47
2022/08/04 09:11:42;;;;;;;2.95;0.90;;;34.10;44.20;;;;;;5071071;28;19904;-48
2022/08/04 09:14:22;;;;;;;5.03;0.90;;;33.90;41.60;;;;;;5071195;28;20074;-55
2022/08/04 09:17:02;;;;;;;3.80;0.93;;;34.00;42.90;;;;;;5071163;28;20024;-50
2022/08/04 09:19:44;;;;;;;5.82;1.13;;;33.40;42.90;;;;;;5070967;28;20017;-51
2022/08/04 09:22:32;;;;;;;4.30;0.95;;;33.30;42.00;;;;;;5071035;28;20032;-55
2022/08/04 09:25:19;;;;;;;6.03;1.13;;;32.80;44.70;;;;;;5070102;28;20040;-52
2022/08/04 09:27:53;;;;;;;4.90;1.20;;;32.90;43.90;;;;;;5069953;28;20293;-53
2022/08/04 09:30:27;;;;;;;5.03;1.00;;;33.20;44.00;;;;;;5071006;28;20119;-53
2022/08/04 09:33:09;;;;;;;4.07;1.10;;;33.40;43.60;;;;;;5070613;28;20033;-47
2022/08/04 09:35:52;;;;;;;2.47;0.73;;;33.60;42.90;;;;;;5069177;28;20142;-50
2022/08/04 09:38:18;;;;;;;2.65;1.08;;;33.30;42.00;;;;;;5070677;28;20016;-43
2022/08/04 09:40:57;;;;;;;4.55;0.95;;;32.60;43.10;;;;;;5070091;28;20522;-44
2022/08/04 09:43:42;;;;;;;3.55;1.00;;;32.10;44.80;;;;;;5066366;28;20047;-48
2022/08/04 09:46:20;;;;;;;4.20;1.00;;;32.30;43.70;;;;;;5068074;28;20032;-52
2022/08/04 09:48:45;;;;;;;3.67;0.80;;;32.90;45.80;;;;;;5068963;28;20032;-54
2022/08/04 09:51:24;;;;;;;1.92;0.80;;;33.10;44.50;;;;;;5069677;28;20082;-46
2022/08/04 09:54:01;;;;;;;3.35;0.80;;;33.40;41.10;;;;;;5069503;28;20557;-47
2022/08/04 09:56:38;;;;;;;3.00;0.90;;;33.30;43.30;;;;;;5069950;28;20105;-45
2022/08/04 09:59:18;;;;;;;3.60;1.10;;;33.30;42.20;;;;;;5071353;28;20025;-47
2022/08/04 10:01:46;;;;;;;2.03;0.90;;;33.00;42.90;;;;;;5074092;28;20070;-48
2022/08/04 10:04:16;;;;;;;4.38;1.10;;;32.80;42.60;;;;;;5074446;28;20024;-57
2022/08/04 10:07:05;;;;;;;2.75;0.90;;;32.90;42.00;;;;;;5074249;28;20514;-46
2022/08/04 10:10:15;;;;;;;1.88;0.70;;;32.20;42.10;;;;;;5074349;28;20020;-48
2022/08/04 10:12:54;;;;;;;2.33;0.82;;;31.10;45.00;;;;;;5072562;28;20491;-49
2022/08/04 10:15:41;;;;;;;3.28;0.73;;;30.80;45.30;;;;;;5073979;28;20387;-47
2022/08/04 10:18:06;;;;;;;2.08;0.70;;;30.70;46.00;;;;;;5067172;28;20066;-48
2022/08/04 10:20:53;;;;;;;2.83;0.70;;;31.40;45.60;;;;;;5074269;28;20036;-47
2022/08/04 10:23:58;;;;;;;2.00;0.70;;;31.60;44.10;;;;;;5068789;28;20032;-46
2022/08/04 10:26:50;;;;;;;2.05;0.88;;;32.40;43.60;;;;;;5073611;28;20028;-56
2022/08/04 10:29:27;;;;;;;7.60;1.08;;;32.70;42.00;;;;;;5070702;28;20087;-46
2022/08/04 10:31:59;;;;;;;2.58;1.00;;;33.20;41.60;;;;;;5073936;28;20032;-55
2022/08/04 10:34:38;;;;;;;6.10;0.70;;;33.60;42.20;;;;;;5073676;28;20347;-47
2022/08/04 10:37:45;;;;;;;3.17;0.90;;;33.70;40.80;;;;;;5058473;28;20035;-45
2022/08/04 10:40:35;;;;;;;4.25;1.05;;;33.90;40.00;;;;;;5071418;28;20036;-44
2022/08/04 10:43:18;;;;;;;2.67;0.90;;;33.30;39.00;;;;;;5066637;28;20028;-44
2022/08/04 10:46:01;;;;;;;2.30;0.70;;;32.50;40.40;;;;;;5073453;28;20115;-43
2022/08/04 10:48:46;;;;;;;4.65;0.80;;;32.10;41.80;;;;;;5073523;28;20032;-44
2022/08/04 10:51:24;;;;;;;2.72;1.00;;;32.40;43.50;;;;;;5073538;28;20035;-49
2022/08/04 10:53:56;;;;;;;2.92;1.00;;;32.80;41.20;;;;;;5073515;28;20020;-47
2022/08/04 10:56:46;;;;;;;1.80;0.75;;;33.20;40.40;;;;;;5073247;28;20032;-47
2022/08/04 10:59:17;;;;;;;2.60;0.82;;;32.90;40.40;;;;;;5057361;28;20063;-44
2022/08/04 11:01:47;;;;;;;2.30;0.90;;;32.40;40.60;;;;;;5073265;28;20044;-47
2022/08/04 11:04:46;;;;;;;4.40;1.13;;;32.00;41.70;;;;;;5073334;28;20016;-51
2022/08/04 11:07:14;;;;;;;2.92;0.85;;;31.60;44.00;;;;;;5083161;28;20377;-50
2022/08/04 11:09:44;;;;;;;2.83;0.70;;;32.00;44.10;;;;;;5072635;28;20025;-49
2022/08/04 11:12:14;;;;;;;2.60;1.00;;;32.40;42.60;;;;;;5073326;28;20419;-53
2022/08/04 11:14:50;;;;;;;4.75;1.20;;;32.40;40.80;;;;;;5058906;28;20017;-49
2022/08/04 11:17:25;;;;;;;2.58;0.80;;;32.30;40.40;;;;;;5072998;28;20063;-43
2022/08/04 11:20:02;;;;;;;2.25;1.00;;;32.10;42.10;;;;;;5059550;28;20380;-49
2022/08/04 11:22:28;;;;;;;3.40;0.93;;;32.00;41.90;;;;;;5072913;28;20028;-50
2022/08/04 11:25:12;;;;;;;2.28;0.80;;;32.00;42.30;;;;;;5072799;28;20029;-51
2022/08/04 11:27:44;;;;;;;1.95;0.80;;;32.40;42.00;;;;;;5072654;28;20555;-48
2022/08/04 11:30:12;;;;;;;3.40;0.90;;;32.00;41.60;;;;;;5073057;28;20059;-47
2022/08/04 11:33:05;;;;;;;1.90;0.90;;;31.50;43.20;;;;;;5072662;28;20033;-55
2022/08/04 11:35:40;;;;;;;2.03;0.80;;;31.20;42.10;;;;;;5056364;28;20094;-44
2022/08/04 11:38:25;;;;;;;10.20;1.30;;;30.50;42.80;;;;;;5065855;28;20021;-52
2022/08/04 11:40:57;;;;;;;2.88;0.88;;;29.80;43.70;;;;;;5072888;28;20029;-50
2022/08/04 11:43:43;;;;;;;5.78;0.82;;;29.20;45.20;;;;;;5071510;28;20074;-50
2022/08/04 11:46:17;;;;;;;3.45;0.80;;;29.70;48.90;;;;;;5072606;28;20041;-48
2022/08/04 11:49:20;;;;;;;2.35;0.75;;;30.50;46.80;;;;;;5072426;28;20551;-44
2022/08/04 11:51:49;;;;;;;2.13;0.70;;;31.00;43.80;;;;;;5072639;28;20039;-48
2022/08/04 11:54:15;;;;;;;4.47;1.05;;;31.40;42.00;;;;;;5072627;28;20025;-50
2022/08/04 11:56:42;;;;;;;2.35;1.00;;;31.60;42.80;;;;;;5072148;28;20483;-44
2022/08/04 11:59:07;;;;;;;2.08;1.10;;;31.70;43.20;;;;;;5072358;28;20029;-44
2022/08/04 12:01:37;;;;;;;3.58;0.73;;;31.80;41.50;;;;;;5072507;28;20028;-49
2022/08/04 12:04:11;;;;;;;1.67;0.70;;;31.20;41.50;;;;;;5072102;28;20059;-47
2022/08/04 12:06:55;;;;;;;3.95;1.05;;;30.30;42.80;;;;;;5072096;28;20063;-52
2022/08/04 12:09:45;;;;;;;2.90;0.98;;;29.30;43.90;;;;;;5071940;28;20048;-49
2022/08/04 12:12:24;;;;;;;1.25;1.02;;;28.80;46.50;;;;;;5071952;28;20127;-49
2022/08/04 12:14:59;;;;;;;2.72;1.13;;;28.50;46.30;;;;;;5071926;28;20020;-46
2022/08/04 12:17:33;;;;;;;3.55;0.95;;;28.70;46.10;;;;;;5071705;28;20387;-50
2022/08/04 12:20:06;;;;;;;1.35;0.80;;;29.00;45.60;;;;;;5071985;28;20051;-45
2022/08/04 12:22:36;;;;;;;2.45;1.05;;;29.60;46.20;;;;;;5070695;28;20024;-46
2022/08/04 12:25:05;;;;;;;1.90;0.90;;;30.40;44.20;;;;;;5071671;28;20066;-49
2022/08/04 12:27:48;;;;;;;1.50;0.93;;;30.60;44.50;;;;;;5071750;28;20041;-44
2022/08/04 12:30:16;;;;;;;1.52;0.80;;;30.20;43.80;;;;;;5059737;28;20043;-55
2022/08/04 12:33:02;;;;;;;1.85;0.63;;;29.60;45.20;;;;;;5071604;28;20475;-45
2022/08/04 12:36:22;;;;;;;8.45;1.08;;;29.20;48.20;;;;;;5066069;28;20057;-43
2022/08/04 12:39:00;;;;;;;3.63;0.85;;;29.70;46.60;;;;;;5049237;28;20029;-49
2022/08/04 12:41:34;;;;;;;3.38;0.93;;;30.50;44.70;;;;;;5075783;28;20379;-44
2022/08/04 12:44:08;;;;;;;4.70;1.00;;;30.70;43.80;;;;;;5071431;28;20028;-45
2022/08/04 12:46:35;;;;;;;2.10;0.80;;;31.00;42.10;;;;;;5071279;28;20048;-54
2022/08/04 12:49:03;;;;;;;5.97;0.98;;;31.00;42.50;;;;;;5067811;28;20029;-43
2022/08/04 12:51:37;;;;;;;2.70;0.80;;;31.00;41.30;;;;;;5069781;28;20031;-43
2022/08/04 12:54:04;;;;;;;2.00;1.00;;;31.10;43.20;;;;;;5070164;28;20070;-50
2022/08/04 12:56:31;;;;;;;2.67;0.80;;;31.00;41.00;;;;;;5061445;28;20055;-48
2022/08/04 12:59:05;;;;;;;2.22;1.00;;;30.90;43.30;;;;;;5070385;28;20070;-46
2022/08/04 13:01:32;;;;;;;2.88;1.00;;;30.90;42.80;;;;;;5070886;28;20032;-53
2022/08/04 13:04:02;;;;;;;4.20;1.02;;;31.10;42.40;;;;;;5069154;28;20503;-47
2022/08/04 13:06:32;;;;;;;2.20;0.93;;;31.30;42.00;;;;;;5052302;28;20041;-48
2022/08/04 13:09:08;;;;;;;2.92;1.00;;;31.40;42.60;;;;;;5068719;28;20016;-46
2022/08/04 13:11:41;;;;;;;1.23;0.63;;;31.30;41.00;;;;;;5071028;28;20584;-50
2022/08/04 13:14:09;;;;;;;2.88;0.90;;;31.60;40.50;;;;;;5070921;28;20027;-51
2022/08/04 13:16:35;;;;;;;;;;;31.40;39.60;;;;;;5071274;28;20020;-54
2022/08/04 13:19:02;;;;;;;2.80;0.90;;;31.20;41.30;;;;;;5071251;28;19912;-49
2022/08/04 13:21:29;;;;;;;3.42;1.10;;;31.10;40.90;;;;;;5070927;28;20059;-51
2022/08/04 13:24:02;;;;;;;3.20;0.93;;;31.10;41.10;;;;;;5061174;28;20192;-48
2022/08/04 13:26:29;;;;;;;4.07;1.10;;;30.90;40.50;;;;;;5069821;28;20460;-58
2022/08/04 13:28:58;;;;;;;2.58;0.80;;;30.50;43.10;;;;;;5070321;28;20085;-50